Latest Weather Observations for Lameroo AWS

IDS60801

Issued at 10:35 pm CDT Sunday 23 November 2014 (issued every 30 minutes, with the page automatically refreshed every 10 minutes)

About weather observations | Map of weather stations | Latest weather observations for SA | Other Formats
Station Details ID: 025562 Name: AUSTIN PLAINS Lat: -35.38 Lon: 140.54 Height: 110.08 m
Data from the previous 72 hours. | See also: Recent months at Lameroo AWS
Date/Time
CDT
Temp
°C
App
Temp
°C
Dew
Point
Rel
Hum
%
Delta-T
°C
Wind Press
QNH
hPa
Press
MSL
hPa
Rain
since 9 am
mm
Dir
 
Spd
km/h
Gust
km/h
Spd
kts
Gust
kts
23/10:30pm 17.9 16.9 13.4 75 2.6 ESE 11 13 6 7 1010.0 1009.7 0.0
23/10:00pm 18.2 17.2 13.5 74 2.7 ESE 11 13 6 7 1010.1 1009.8 0.0
23/09:30pm 18.8 17.4 13.4 71 3.1 ENE 13 15 7 8 1010.2 1009.9 0.0
23/09:00pm 19.7 18.4 13.6 68 3.5 E 13 15 7 8 1010.0 1009.7 0.0
23/08:30pm 21.1 19.8 13.8 63 4.2 E 13 17 7 9 1009.9 1009.6 0.0
23/08:00pm 22.5 21.4 13.0 55 5.5 E 11 15 6 8 1010.5 1010.2 0.0
23/07:30pm 23.3 22.5 12.9 52 6.0 ENE 9 11 5 6 1010.8 1010.5 0.0
23/07:00pm 25.3 23.9 9.6 37 8.7 NNE 7 11 4 6 1011.1 1010.8 0.0
23/06:30pm 26.1 25.9 9.0 34 9.4 CALM 0 4 0 2 1011.3 1011.0 0.0
23/06:00pm 25.6 24.2 9.0 35 9.1 WSW 6 7 3 4 1011.3 1011.0 0.0
23/05:30pm 25.7 23.3 8.7 34 9.3 WSW 11 19 6 10 1011.1 1010.8 0.0
23/05:00pm 25.9 23.7 9.3 35 9.1 WSW 11 13 6 7 1011.2 1010.9 0.0
23/04:30pm 26.2 23.4 10.0 36 9.0 W 15 22 8 12 1011.7 1011.4 0.0
23/04:00pm 26.3 23.6 10.5 37 8.9 W 15 20 8 11 1012.1 1011.8 0.0
23/03:30pm 26.3 24.9 10.9 38 8.7 SSW 9 17 5 9 1010.8 1010.5 0.0
23/03:00pm 25.8 23.8 11.6 41 8.1 WSW 13 19 7 10 1011.9 1011.6 0.0
23/02:30pm 25.6 23.8 11.0 40 8.3 W 11 19 6 10 1012.3 1012.1 0.0
23/02:00pm 25.4 23.2 10.8 40 8.2 W 13 26 7 14 1012.4 1012.2 0.0
23/01:30pm 25.6 22.9 10.2 38 8.6 W 15 20 8 11 1012.2 1011.9 0.0
23/01:00pm 25.1 23.4 11.3 42 7.8 W 11 20 6 11 1012.6 1012.4 0.0
23/12:30pm 23.5 22.6 10.6 44 7.2 WNW 6 13 3 7 1012.7 1012.5 0.0
23/12:00pm 22.7 22.0 11.4 49 6.3 NNE 6 9 3 5 1012.9 1012.7 0.0
23/11:30am 22.3 22.2 12.0 52 5.8 ENE 4 9 2 5 1012.6 1012.4 0.0
23/11:00am 21.3 21.1 11.9 55 5.3 ENE 4 7 2 4 1012.9 1012.7 0.0
23/10:30am 19.8 18.8 11.0 57 4.8 SE 7 13 4 7 1012.9 1012.7 0.0
23/10:00am 18.7 18.2 12.0 65 3.7 SSE 6 11 3 6 1013.0 1012.8 0.0
23/09:30am 17.7 17.2 12.6 72 2.9 S 7 13 4 7 1013.4 1013.2 0.0
23/09:00am 15.9 14.8 12.1 78 2.1 SSE 9 15 5 8 1013.3 1013.1 6.0
23/08:30am 15.0 13.3 13.7 92 0.7 S 15 20 8 11 1013.0 1012.8 6.0
23/08:00am 13.9 12.3 13.9 100 0.0 S 15 19 8 10 1012.8 1012.6 6.0
23/07:30am 13.3 11.5 13.3 100 0.0 S 15 17 8 9 1012.8 1012.6 6.0
23/07:00am 12.4 10.7 12.4 100 0.0 S 13 17 7 9 1012.8 1012.6 6.0
23/06:30am 12.1 11.0 12.1 100 0.0 S 9 13 5 7 1012.5 1012.3 5.8
23/06:00am 12.0 10.9 12.0 100 0.0 SSW 9 11 5 6 1012.2 1011.9 5.8
23/05:30am 12.2 10.4 12.2 100 0.0 SSW 13 17 7 9 1011.9 1011.6 5.8
23/05:00am 11.7 10.1 11.7 100 0.0 SSW 11 13 6 7 1011.9 1011.6 5.8
23/04:30am 11.6 10.0 11.6 100 0.0 SSW 11 11 6 6 1011.7 1011.4 5.8
23/04:00am 12.1 10.3 12.1 100 0.0 SSW 13 15 7 8 1011.2 1010.9 5.8
23/03:30am 12.3 11.3 12.3 100 0.0 SSW 9 11 5 6 1011.1 1010.8 5.8
23/03:00am 12.7 11.1 12.7 100 0.0 SSW 13 15 7 8 1011.1 1010.8 5.8
23/02:30am 13.1 11.6 13.1 100 0.0 SSW 13 15 7 8 1011.3 1011.0 5.8
23/02:00am 13.4 11.5 13.1 98 0.2 SSW 15 19 8 10 1011.4 1011.1 5.8
23/01:30am 13.8 11.4 12.7 93 0.6 SW 17 20 9 11 1011.4 1011.1 5.8
23/01:00am 14.3 12.0 12.9 91 0.8 SW 17 22 9 12 1011.7 1011.4 5.8
23/12:30am 14.6 12.7 13.0 90 0.9 SW 15 19 8 10 1011.7 1011.4 5.8
23/12:00am 14.8 12.1 13.0 89 1.0 SW 19 22 10 12 1011.4 1011.1 5.8
 
Date/Time
CDT
Temp
°C
App
Temp
°C
Dew
Point
Rel
Hum
%
Delta-T
°C
Wind Press
QNH
hPa
Press
MSL
hPa
Rain
since 9 am
mm
Dir
 
Spd
km/h
Gust
km/h
Spd
kts
Gust
kts
22/11:30pm 15.3 13.1 13.2 87 1.2 SSW 17 20 9 11 1011.6 1011.3 5.8
22/11:00pm 15.8 13.1 13.5 86 1.3 SSW 20 26 11 14 1011.3 1011.0 5.8
22/10:30pm 16.4 13.8 13.7 84 1.5 SSW 20 24 11 13 1011.1 1010.8 5.8
22/10:00pm 17.2 14.3 13.9 81 1.9 SSW 22 28 12 15 1010.8 1010.5 5.8
22/09:30pm 18.3 15.6 14.6 79 2.2 SSW 22 32 12 17 1010.4 1010.1 5.8
22/09:00pm 18.7 17.0 15.8 83 1.7 SW 19 22 10 12 1010.0 1009.7 5.8
22/08:30pm 19.5 19.1 17.1 86 1.5 WSW 15 19 8 10 1009.5 1009.2 5.8
22/08:00pm 20.1 19.2 16.9 82 2.0 WSW 17 22 9 12 1009.0 1008.7 5.8
22/07:30pm 20.8 20.9 17.4 81 2.1 WSW 13 17 7 9 1008.4 1008.1 5.8
22/07:00pm 21.9 21.9 17.3 75 2.8 WSW 13 19 7 10 1007.9 1007.6 5.8
22/06:30pm 22.3 21.0 16.8 71 3.4 WSW 19 26 10 14 1007.5 1007.2 5.8
22/06:00pm 23.0 25.0 17.9 73 3.2 W 4 9 2 5 1007.2 1006.9 5.8
22/05:30pm 21.1 23.2 18.1 83 1.9 SSW 4 9 2 5 1006.9 1006.6 5.8
22/05:00pm 20.7 22.8 17.3 81 2.1 NNE 2 6 1 3 1007.7 1007.4 5.8
22/04:30pm 19.9 20.9 16.9 83 1.8 E 7 9 4 5 1007.5 1007.2 5.8
22/04:00pm 19.2 17.4 15.9 81 2.0 NNE 20 28 11 15 1007.8 1007.5 5.6
22/03:30pm 19.2 17.8 16.6 85 1.6 NNE 19 26 10 14 1007.2 1006.9 4.8
22/03:00pm 20.1 19.4 16.5 80 2.2 NNE 15 20 8 11 1008.9 1008.6 4.0
22/02:30pm 20.1 18.4 16.3 79 2.3 N 20 30 11 16 1007.8 1007.5 3.8
22/02:00pm 19.0 18.3 15.3 79 2.2 N 13 24 7 13 1008.2 1007.9 3.0
22/01:30pm 19.1 14.6 15.0 77 2.4 NNE 32 43 17 23 1006.9 1006.6 2.8
22/01:05pm 18.6 14.0 14.7 78 2.3 N 32 54 17 29 1008.0 1007.7 2.4
22/01:00pm 18.2 13.7 14.9 81 1.9 N 32 41 17 22 1008.7 1008.4 2.4
22/12:30pm 18.6 12.9 14.1 75 2.6 NNE 37 44 20 24 1008.1 1007.8 1.4
22/12:14pm 18.3 13.5 14.0 76 2.5 NNE 32 46 17 25 1008.3 1008.0 1.2
22/12:00pm 18.5 16.0 14.2 76 2.5 N 20 26 11 14 1009.6 1009.3 0.8
22/11:30am 20.5 17.2 12.7 61 4.4 N 22 30 12 16 1009.6 1009.3 0.0
22/11:00am 19.7 15.2 12.5 63 4.1 N 28 35 15 19 1009.1 1008.8 0.0
22/10:30am 19.9 17.2 13.6 67 3.6 N 20 28 11 15 1010.0 1009.7 0.0
22/10:00am 17.9 16.2 12.6 71 3.0 N 13 19 7 10 1010.7 1010.4 0.0
22/09:30am 17.6 17.6 12.5 72 2.8 WNW 4 7 2 4 1011.2 1010.9 0.0
22/09:00am 17.2 15.2 11.5 69 3.1 N 13 19 7 10 1010.8 1010.5 0.4
22/08:30am 18.6 14.6 9.1 54 5.0 N 20 30 11 16 1009.8 1009.5 0.2
22/08:00am 19.1 14.3 7.2 46 6.1 N 22 30 12 16 1009.2 1008.9 0.2
22/07:30am 18.9 12.8 6.4 44 6.3 NNE 28 33 15 18 1008.1 1007.8 0.2
22/07:00am 17.4 13.0 6.6 49 5.4 NNE 19 24 10 13 1008.5 1008.2 0.2
22/06:30am 15.6 12.1 7.1 57 4.2 NE 15 17 8 9 1008.1 1007.8 0.2
22/06:00am 14.4 11.2 6.7 60 3.8 E 13 15 7 8 1008.3 1008.0 0.2
22/05:30am 14.4 10.3 6.3 58 3.9 NE 17 20 9 11 1007.9 1007.6 0.2
22/05:00am 14.1 9.5 5.7 57 4.0 NE 19 20 10 11 1007.8 1007.5 0.2
22/04:30am 14.2 9.6 5.6 56 4.1 ENE 19 24 10 13 1007.8 1007.5 0.2
22/04:00am 14.3 9.7 5.4 55 4.2 ENE 19 22 10 12 1007.7 1007.4 0.2
22/03:30am 14.6 10.0 5.4 54 4.4 ENE 19 20 10 11 1007.9 1007.6 0.2
22/03:00am 14.5 9.8 5.3 54 4.4 E 19 22 10 12 1008.1 1007.8 0.2
22/02:30am 14.4 9.8 5.7 56 4.2 ENE 19 20 10 11 1008.2 1007.9 0.2
22/02:00am 14.4 9.9 6.3 58 3.9 E 19 20 10 11 1008.7 1008.4 0.2
22/01:30am 14.0 10.5 7.1 63 3.4 E 15 15 8 8 1009.3 1009.0 0.2
22/01:00am 14.2 10.9 7.9 66 3.1 E 15 17 8 9 1009.7 1009.4 0.2
22/12:30am 14.2 11.4 8.4 68 2.9 E 13 15 7 8 1010.3 1010.0 0.2
22/12:00am 15.0 12.1 8.0 63 3.5 E 13 15 7 8 1010.8 1010.5 0.2
 
Date/Time
CDT
Temp
°C
App
Temp
°C
Dew
Point
Rel
Hum
%
Delta-T
°C
Wind Press
QNH
hPa
Press
MSL
hPa
Rain
since 9 am
mm
Dir
 
Spd
km/h
Gust
km/h
Spd
kts
Gust
kts
21/11:30pm 14.8 12.5 9.0 68 3.0 E 11 13 6 7 1011.2 1010.9 0.2
21/11:00pm 15.3 12.9 8.5 64 3.5 ESE 11 13 6 7 1011.7 1011.4 0.2
21/10:30pm 16.0 13.0 7.7 58 4.2 SSE 13 13 7 7 1011.9 1011.6 0.2
21/10:00pm 17.1 14.0 7.2 52 5.0 S 13 15 7 8 1011.9 1011.6 0.2
21/09:30pm 17.5 14.5 7.5 52 5.1 SSE 13 15 7 8 1011.7 1011.4 0.2
21/09:00pm 18.7 15.0 6.5 45 6.1 S 15 17 8 9 1011.6 1011.3 0.2
21/08:30pm 20.1 16.7 6.1 40 7.0 S 13 13 7 7 1011.1 1010.8 0.2
21/08:00pm 22.8 20.6 5.3 32 8.8 S 6 7 3 4 1010.9 1010.6 0.2
21/07:30pm 24.0 21.1 4.9 29 9.6 SSW 9 13 5 7 1010.8 1010.5 0.2
21/07:00pm 25.4 22.5 4.5 26 10.5 SW 9 15 5 8 1010.7 1010.4 0.2
21/06:30pm 25.6 22.2 4.1 25 10.8 SSW 11 17 6 9 1010.4 1010.1 0.2
21/06:00pm 26.3 22.6 4.7 25 11.0 W 13 20 7 11 1010.3 1010.0 0.2
21/05:30pm 26.2 22.4 4.1 24 11.1 WSW 13 22 7 12 1010.4 1010.1 0.2
21/05:00pm 25.9 20.8 3.2 23 11.2 SW 19 28 10 15 1010.5 1010.2 0.2
21/04:30pm 25.8 21.4 2.5 22 11.4 WSW 15 24 8 13 1010.5 1010.2 0.2
21/04:00pm 24.9 19.6 1.7 22 11.1 WSW 19 28 10 15 1010.6 1010.3 0.2
21/03:30pm 25.3 20.0 2.1 22 11.2 WSW 19 28 10 15 1010.6 1010.3 0.2
21/03:00pm 25.3 20.3 4.4 26 10.5 WSW 20 30 11 16 1011.2 1010.9 0.2
21/02:30pm 25.8 22.5 6.4 29 10.1 WNW 13 24 7 13 1011.5 1011.2 0.2
21/02:00pm 23.6 20.6 6.0 32 9.0 W 11 24 6 13 1011.8 1011.5 0.2
21/01:30pm 23.5 20.4 7.2 35 8.5 W 13 22 7 12 1012.1 1011.8 0.2
21/01:00pm 22.6 20.4 8.0 39 7.7 WSW 9 22 5 12 1012.5 1012.3 0.2
21/12:30pm 21.5 20.3 9.4 46 6.5 WSW 6 19 3 10 1012.8 1012.6 0.2
21/12:00pm 20.0 17.8 7.7 45 6.4 NNW 9 19 5 10 1013.2 1013.0 0.2
21/11:30am 19.5 17.7 9.4 52 5.4 WSW 9 17 5 9 1013.3 1013.1 0.2
21/11:00am 19.3 17.0 10.3 56 4.9 SW 13 22 7 12 1013.4 1013.2 0.2
21/10:30am 17.6 14.9 9.0 57 4.5 SW 13 24 7 13 1013.8 1013.5 0.2
21/10:00am 17.7 15.5 9.3 58 4.4 SW 11 20 6 11 1013.5 1013.3 0.2
21/09:30am 17.3 15.0 10.4 64 3.7 WSW 13 20 7 11 1013.5 1013.3 0.0
21/09:00am 16.8 14.4 10.2 65 3.5 SSW 13 17 7 9 1013.5 1013.3 7.4
21/08:30am 15.7 14.0 10.0 69 3.0 SSW 9 15 5 8 1013.4 1013.2 7.4
21/08:00am 14.9 13.6 9.9 72 2.6 SSW 7 13 4 7 1013.1 1012.9 7.4
21/07:30am 13.8 13.3 10.6 81 1.7 WSW 4 7 2 4 1012.8 1012.6 7.4
21/07:00am 13.2 12.7 10.9 86 1.2 WSW 4 6 2 3 1012.4 1012.2 7.4
21/06:30am 12.5 11.4 10.6 88 1.0 SSW 7 9 4 5 1012.2 1011.9 7.4
21/06:00am 13.1 11.7 11.0 87 1.1 SSW 9 11 5 6 1012.0 1011.7 7.4
21/05:30am 13.1 10.9 10.8 86 1.2 SSW 13 15 7 8 1011.4 1011.1 7.4
21/05:00am 13.4 12.1 11.1 86 1.2 SW 9 13 5 7 1011.5 1011.2 7.4
21/04:30am 13.7 11.7 11.4 86 1.2 SW 13 19 7 10 1011.3 1011.0 7.4
21/04:00am 14.0 11.3 11.7 86 1.2 SW 17 22 9 12 1011.1 1010.8 7.4
21/03:30am 14.2 12.0 12.2 88 1.1 SW 15 19 8 10 1010.7 1010.4 7.4
21/03:00am 14.3 11.8 12.3 88 1.1 SW 17 24 9 13 1010.7 1010.4 7.4
21/02:30am 14.3 10.9 12.5 89 1.0 SW 22 30 12 16 1010.4 1010.1 7.4
21/02:00am 14.6 12.0 13.1 91 0.8 SW 19 26 10 14 1010.5 1010.2 7.4
21/01:30am 15.1 10.8 13.3 89 1.0 SW 28 35 15 19 1010.3 1010.0 7.4
21/01:00am 15.1 11.6 13.5 90 0.9 SW 24 35 13 19 1010.1 1009.8 7.4
21/12:30am 14.4 13.1 12.6 89 1.0 SW 11 17 6 9 1010.3 1010.0 7.4
21/12:00am 15.4 12.6 13.1 86 1.3 SW 20 30 11 16 1010.3 1010.0 7.4
 
Date/Time
CDT
Temp
°C
App
Temp
°C
Dew
Point
Rel
Hum
%
Delta-T
°C
Wind Press
QNH
hPa
Press
MSL
hPa
Rain
since 9 am
mm
Dir
 
Spd
km/h
Gust
km/h
Spd
kts
Gust
kts
20/11:30pm 15.6 13.6 13.8 89 1.0 WSW 17 28 9 15 1010.4 1010.1 7.4
20/11:00pm 15.6 11.8 13.6 88 1.1 SW 26 35 14 19 1010.5 1010.2 7.4

Other Formats:

Comma delimited format used in spreadsheet applications
http://www.bom.gov.au/fwo/IDS60801/IDS60801.94690.axf

JavaScript Object Notation format (JSON) in row-major order
http://www.bom.gov.au/fwo/IDS60801/IDS60801.94690.json